createdAt,value
2023-03-23T15:59:13.341Z,2.92
2023-03-23T16:01:42.744Z,3.25
2023-03-23T16:04:16.748Z,2.53
2023-03-23T16:06:43.502Z,2.72
2023-03-23T16:09:15.855Z,2.47
2023-03-23T16:11:43.282Z,1.70
2023-03-23T16:14:09.787Z,2.35
2023-03-23T16:16:44.443Z,2.65
2023-03-23T16:19:16.494Z,3.10
2023-03-23T16:21:43.656Z,3.47
2023-03-23T16:24:11.173Z,3.28
2023-03-23T16:26:40.342Z,3.42
2023-03-23T16:29:23.792Z,4.22
2023-03-23T16:31:55.379Z,3.10
2023-03-23T16:34:22.015Z,2.80
2023-03-23T16:36:48.548Z,2.90
2023-03-23T16:39:18.946Z,4.07
2023-03-23T16:41:46.008Z,3.00
2023-03-23T16:44:12.759Z,4.15
2023-03-23T16:46:39.651Z,3.38
2023-03-23T16:49:06.276Z,2.85
2023-03-23T16:51:32.892Z,3.05
2023-03-23T16:53:59.415Z,2.63
2023-03-23T16:56:25.966Z,3.72
2023-03-23T16:58:52.575Z,2.97
2023-03-23T17:01:19.834Z,2.95
2023-03-23T17:03:46.460Z,2.45
2023-03-23T17:06:13.074Z,3.50
2023-03-23T17:08:39.692Z,3.95
2023-03-23T17:11:06.603Z,2.28
2023-03-23T17:13:34.620Z,4.15
2023-03-23T17:16:01.540Z,3.22
2023-03-23T17:18:29.235Z,2.85
2023-03-23T17:20:56.319Z,2.72
2023-03-23T17:23:23.108Z,3.65
2023-03-23T17:25:50.479Z,3.83
2023-03-23T17:28:19.482Z,3.58
2023-03-23T17:30:47.004Z,6.10
2023-03-23T17:33:14.099Z,3.33
2023-03-23T17:35:41.749Z,7.20
2023-03-23T17:38:08.365Z,5.03
2023-03-23T17:40:35.062Z,4.07
2023-03-23T17:43:01.639Z,5.32
2023-03-23T17:45:28.259Z,4.07
2023-03-23T17:47:54.842Z,4.47
2023-03-23T17:50:21.536Z,4.68
2023-03-23T17:52:49.800Z,6.25
2023-03-23T17:55:17.110Z,6.70
2023-03-23T17:57:44.877Z,5.97
2023-03-23T18:00:13.556Z,6.78
2023-03-23T18:02:40.249Z,4.70
2023-03-23T18:05:09.269Z,6.45
2023-03-23T18:07:36.829Z,5.75
2023-03-23T18:10:11.366Z,5.85
2023-03-23T18:12:41.877Z,7.10
2023-03-23T18:15:09.460Z,7.05
2023-03-23T18:17:36.091Z,5.70
2023-03-23T18:20:03.954Z,6.68
2023-03-23T18:24:58.379Z,5.80
2023-03-23T18:27:25.158Z,5.90
2023-03-23T18:29:51.827Z,4.55
2023-03-23T18:32:19.700Z,6.60
2023-03-23T18:37:13.698Z,5.80
2023-03-23T18:39:40.415Z,5.20
2023-03-23T18:42:07.228Z,4.80
2023-03-23T18:44:33.975Z,5.65
2023-03-23T18:47:00.787Z,5.00
2023-03-23T18:49:28.918Z,5.40
2023-03-23T18:51:55.914Z,6.53
2023-03-23T18:54:22.428Z,6.38
2023-03-23T18:56:49.198Z,4.78
2023-03-23T18:59:15.874Z,5.80
2023-03-23T19:01:42.466Z,5.88
2023-03-23T19:04:09.137Z,5.10
2023-03-23T19:06:35.681Z,5.53
2023-03-23T19:09:02.502Z,5.60
2023-03-23T19:11:29.286Z,4.85
2023-03-23T19:14:02.540Z,6.05
2023-03-23T19:16:32.257Z,7.55
2023-03-23T19:19:01.716Z,4.38
2023-03-23T19:21:31.490Z,7.38
2023-03-23T19:23:58.696Z,5.63
2023-03-23T19:26:37.739Z,4.80
2023-03-23T19:31:36.997Z,6.00
2023-03-23T19:34:04.128Z,4.65
2023-03-23T19:36:31.364Z,5.00
2023-03-23T19:38:58.052Z,5.93
2023-03-23T19:41:29.624Z,4.47
2023-03-23T19:43:56.203Z,6.05
2023-03-23T19:46:23.702Z,5.47
2023-03-23T19:48:50.706Z,5.18
2023-03-23T19:51:19.067Z,7.25
2023-03-23T19:53:46.383Z,4.65
2023-03-23T19:56:15.631Z,4.60
2023-03-23T19:58:42.231Z,5.80
2023-03-23T20:01:08.825Z,4.05
2023-03-23T20:03:36.554Z,5.40
2023-03-23T20:06:07.133Z,5.57
2023-03-23T20:08:33.743Z,4.63
2023-03-23T20:11:08.350Z,4.63
2023-03-23T20:13:35.811Z,4.47
2023-03-23T20:16:02.608Z,4.30
2023-03-23T20:18:30.239Z,4.72
2023-03-23T20:21:18.937Z,4.32
2023-03-23T20:23:46.923Z,4.95
2023-03-23T20:26:17.086Z,5.10
2023-03-23T20:28:45.585Z,3.90
2023-03-23T20:31:23.214Z,5.25
2023-03-23T20:34:00.630Z,4.60
2023-03-23T20:36:50.131Z,4.80
2023-03-23T20:39:21.316Z,4.88
2023-03-23T20:41:50.700Z,5.35
2023-03-23T20:44:18.883Z,6.40
2023-03-23T20:46:47.199Z,5.50
2023-03-23T20:49:15.937Z,4.72
2023-03-23T20:51:43.680Z,5.80
2023-03-23T20:54:10.922Z,7.60
2023-03-23T20:56:40.436Z,6.32
2023-03-23T20:59:07.270Z,5.38
2023-03-23T21:01:34.390Z,7.30
2023-03-23T21:04:03.253Z,5.85
2023-03-23T21:06:31.024Z,5.97
2023-03-23T21:08:58.105Z,4.93
2023-03-23T21:11:26.395Z,6.30
2023-03-23T21:13:53.352Z,5.47
2023-03-23T21:16:20.168Z,5.25
2023-03-23T21:18:47.669Z,5.95
2023-03-23T21:21:15.007Z,6.72
2023-03-23T21:23:46.654Z,6.88
2023-03-23T21:26:18.732Z,5.10
2023-03-23T21:28:46.740Z,5.95
2023-03-23T21:31:15.028Z,4.85
2023-03-23T21:33:41.767Z,5.68
2023-03-23T21:36:08.477Z,4.45
2023-03-23T21:38:35.459Z,6.57
2023-03-23T21:41:08.615Z,5.63
2023-03-23T21:43:35.218Z,5.93
2023-03-23T21:46:05.359Z,5.47
2023-03-23T21:48:33.104Z,5.07
2023-03-23T21:51:09.422Z,5.85
2023-03-23T21:53:37.094Z,5.85
2023-03-23T21:58:31.824Z,6.85
2023-03-23T22:01:01.036Z,6.50
2023-03-23T22:03:32.165Z,6.50
2023-03-23T22:06:05.739Z,5.72
2023-03-23T22:08:32.966Z,5.90
2023-03-23T22:11:05.764Z,8.15
2023-03-23T22:13:34.660Z,8.75
2023-03-23T22:16:02.514Z,8.23
2023-03-23T22:18:29.676Z,6.13
2023-03-23T22:20:59.034Z,6.88
2023-03-23T22:23:26.376Z,7.53
2023-03-23T22:25:53.938Z,7.28
2023-03-23T22:28:20.561Z,7.40
2023-03-23T22:30:47.586Z,7.05
2023-03-23T22:33:14.939Z,7.30
2023-03-23T22:35:41.474Z,8.63
2023-03-23T22:38:08.005Z,9.10
2023-03-23T22:40:34.917Z,6.53
2023-03-23T22:43:01.539Z,7.47
2023-03-23T22:45:28.385Z,10.05
2023-03-23T22:47:56.306Z,5.78
2023-03-23T22:50:24.179Z,8.65
2023-03-23T22:52:50.940Z,7.70
2023-03-23T22:55:17.558Z,8.80
2023-03-23T22:57:44.085Z,8.00
2023-03-23T23:00:14.687Z,9.98
2023-03-23T23:02:43.001Z,7.05
2023-03-23T23:05:10.997Z,7.93
2023-03-23T23:07:38.102Z,12.00
2023-03-23T23:10:05.502Z,8.98
2023-03-23T23:12:35.245Z,6.90
2023-03-23T23:15:04.465Z,8.88
2023-03-23T23:17:34.738Z,10.20
2023-03-23T23:20:05.442Z,8.85
2023-03-23T23:22:32.535Z,10.70
2023-03-23T23:24:59.470Z,9.52
2023-03-23T23:27:26.306Z,7.72
2023-03-23T23:29:53.076Z,10.13
2023-03-23T23:32:19.638Z,9.20
2023-03-23T23:34:46.842Z,9.15
2023-03-23T23:37:13.735Z,10.73
2023-03-23T23:39:41.351Z,8.75
2023-03-23T23:42:08.019Z,8.15
2023-03-23T23:44:35.070Z,8.27
2023-03-23T23:47:02.486Z,8.73
2023-03-23T23:49:29.381Z,8.70
2023-03-23T23:51:56.609Z,7.90
2023-03-23T23:54:29.595Z,9.05
2023-03-23T23:57:01.182Z,10.85
2023-03-23T23:59:29.123Z,10.02
